Kelmont East, Nevada
Current Conditions -  °F | °C
As of 8:53 PM on Tuesday 25 Nov 2014 (Local Time) from KTVL Reporting Station
Clear Clear  
Wind Chill: 30°   Ceiling: Unl
Heat Index: 36°   Visibility: 10mi
Dew Point: 26°   Wind: 7mph
Humidity: 67%   Direction: 200°SSW
Pressure: 30.53"   Gusts: NA
Location:  39.0164°N, 119.925°W
Report Text: KTVL 260453Z AUTO 20006KT 10SM CLR 02/M03 A3053 RMK AO2 SLP336 T00221033
Loading
Personal Weather Stations






























Interactive Weather Map New forecast layout! Learn more

10-Day Weather Forecast

Advertisements
Track Severe Weather on mobile